LTBS

Details ICAO LTBS (DLM)
Name DALAMAN
Region Turkey
Timezone Europe/Istanbul (UTC+3.0)
Plans Departing 180
Arriving 239
Stats Elevation 20 ft / 6 m (AMSL)
Location 36.713189° 28.792513°
Runways 1
Magnetic Variation 4.879° E
Sunrise 2017-12-14 05:10:44 UTC / 2017-12-14 08:10:44 Local
Sunset 2017-12-14 14:51:01 UTC / 2017-12-14 17:51:01 Local
Advertisement - Login to hide

Runways

ID Width Length Bearing (true) Bearing (mag) Surface Threshold Offset Overrun Length
01 148 ft / 45 m 9,851 ft / 3,003 m 15.24° 10.36° Concrete 0 ft / 0 m 197 ft / 60 m
19 148 ft / 45 m 9,851 ft / 3,003 m 195.25° 190.37° Concrete 0 ft / 0 m 197 ft / 60 m

Map

Weather


0- 5 10 15 20 25 30 35+ Temperature / ° C

Clouds and Precipitation
Forecast for 2017-12-14 12:00 UTC. Updated an hour ago

Ground ~20,000 ft ~40,000 ft Winds

METAR

LTBS 141020Z 01004KT 340V050 9999 FEW030 17/09 Q1017 BECMG TL1050 21012KT

TAF

TAF AMD LTBS 141034Z 1410/1506 VRB02KT CAVOK

Frequencies

Recorded 127.35 MHz ATIS
Tower 118.50 MHz TWR
Approach 119.22 MHz APP
Ground 121.90 MHz GND
Tower 128.90 MHz TWR
Approach 129.50 MHz APP
Warning: Do not use this data for real-world aviation or navigation. No guarantee of current accuracy is given.